Time;durP1;ratioP1;P1;durP2;ratioP2;P2;SDS_P1;SDS_P2;PMS_P1;PMS_P2;Temp;Humidity;BMP_temperature;BMP_pressure;BME280_temperature;BME280_humidity;BME280_pressure;Samples;Min_cycle;Max_cycle;Signal;HPM_P1;HPM_P2
2021/10/10 00:01:14;;;;;;;12.70;4.80;;;;;;;10.01;38.30;100700.20;27573;1208;3026105;-69
2021/10/10 00:03:43;;;;;;;14.50;4.90;;;;;;;10.03;38.42;100698.55;27612;1215;3049284;-70
2021/10/10 00:06:12;;;;;;;11.70;4.50;;;;;;;10.03;38.91;100696.63;27589;1215;3026224;-70
2021/10/10 00:08:41;;;;;;;11.10;4.60;;;;;;;10.04;38.69;100694.14;27607;1215;3025682;-71
2021/10/10 00:11:16;;;;;;;9.70;4.90;;;;;;;10.06;38.92;100695.63;27491;1216;3051174;-73
2021/10/10 00:13:46;;;;;;;15.70;6.50;;;;;;;10.11;38.59;100695.63;27254;1216;3026054;-76
2021/10/10 00:16:15;;;;;;;18.30;8.20;;;;;;;10.13;38.17;100693.27;27239;1216;3050792;-75
2021/10/10 00:18:44;;;;;;;17.70;7.00;;;;;;;10.15;37.72;100692.48;27259;1216;3028083;-72
2021/10/10 00:21:13;;;;;;;13.80;4.80;;;;;;;10.16;37.89;100692.44;27199;1215;3070421;-75
2021/10/10 00:23:42;;;;;;;12.90;4.40;;;;;;;10.12;37.77;100691.71;27369;1216;3026087;-73
2021/10/10 00:26:12;;;;;;;11.00;4.40;;;;;;;10.11;37.68;100687.73;27247;1216;3028284;-74
2021/10/10 00:28:41;;;;;;;8.40;3.80;;;;;;;10.09;37.69;100687.82;27198;1216;3025934;-74
2021/10/10 00:31:10;;;;;;;6.00;3.70;;;;;;;10.04;37.48;100689.58;27286;1216;3048487;-74
2021/10/10 00:33:40;;;;;;;9.80;3.70;;;;;;;10.04;37.24;100686.59;27265;1216;3026366;-72
2021/10/10 00:36:09;;;;;;;8.10;3.90;;;;;;;10.03;36.94;100687.16;27365;1215;3026211;-72
2021/10/10 00:38:37;;;;;;;9.10;3.70;;;;;;;10.04;36.80;100685.02;27377;1215;3048815;-72
2021/10/10 00:41:06;;;;;;;8.30;3.20;;;;;;;10.07;36.79;100683.86;27282;1215;3026452;-74
2021/10/10 00:43:38;;;;;;;8.70;3.50;;;;;;;10.11;36.52;100682.83;27235;1216;3070209;-72
2021/10/10 00:46:08;;;;;;;10.30;3.40;;;;;;;10.10;36.55;100688.99;27260;1216;3026889;-75
2021/10/10 00:48:38;;;;;;;11.30;3.60;;;;;;;10.10;36.56;100688.13;27217;1215;3027380;-75
2021/10/10 00:51:07;;;;;;;10.40;3.30;;;;;;;10.10;36.65;100691.61;27229;1216;3029385;-77
2021/10/10 00:53:37;;;;;;;8.30;3.50;;;;;;;10.14;36.54;100691.30;27274;1215;3025675;-71
2021/10/10 00:56:06;;;;;;;9.60;3.60;;;;;;;10.11;36.63;100692.46;27193;1216;3054493;-73
2021/10/10 00:58:36;;;;;;;7.90;3.50;;;;;;;10.12;36.29;100690.13;27314;1215;3026045;-76
2021/10/10 01:01:05;;;;;;;9.50;3.40;;;;;;;10.14;36.33;100691.27;27360;1218;3048916;-72
2021/10/10 01:03:34;;;;;;;10.90;5.00;;;;;;;10.19;36.20;100695.64;27347;1216;3026417;-72
2021/10/10 01:06:03;;;;;;;8.80;3.80;;;;;;;10.18;36.28;100696.36;27312;1215;3070846;-73
2021/10/10 01:08:32;;;;;;;11.30;3.90;;;;;;;10.17;36.20;100696.42;27436;1208;3026037;-72
2021/10/10 01:11:01;;;;;;;11.70;3.60;;;;;;;10.16;36.36;100697.15;27350;1216;3052070;-75
2021/10/10 01:13:30;;;;;;;7.70;4.00;;;;;;;10.18;36.39;100696.39;27293;1216;3025821;-74
2021/10/10 01:15:59;;;;;;;10.50;3.80;;;;;;;10.17;36.37;100697.48;27357;1216;3054603;-73
2021/10/10 01:18:28;;;;;;;10.70;4.10;;;;;;;10.15;36.54;100699.65;27331;1216;3029106;-74
2021/10/10 01:20:57;;;;;;;9.00;3.50;;;;;;;10.17;36.44;100699.04;27271;1215;3050562;-75
2021/10/10 01:23:26;;;;;;;14.70;4.40;;;;;;;10.18;36.63;100701.80;27296;1215;3025636;-72
2021/10/10 01:25:55;;;;;;;10.50;4.10;;;;;;;10.17;36.70;100704.29;27250;1216;3054479;-70
2021/10/10 01:28:24;;;;;;;9.70;3.70;;;;;;;10.19;36.67;100703.36;27281;1215;3026253;-74
2021/10/10 01:30:53;;;;;;;9.50;3.90;;;;;;;10.18;36.85;100704.75;27254;1216;3051226;-76
2021/10/10 01:33:22;;;;;;;13.40;4.10;;;;;;;10.13;36.96;100703.23;27265;1216;3028863;-73
2021/10/10 01:35:51;;;;;;;6.60;3.70;;;;;;;10.09;37.18;100704.77;27225;1216;3053702;-73
2021/10/10 01:38:20;;;;;;;8.10;3.70;;;;;;;10.07;37.29;100705.58;27317;1215;3028332;-74
2021/10/10 01:40:50;;;;;;;5.50;3.10;;;;;;;10.03;37.08;100707.47;27285;1215;3046744;-72
2021/10/10 01:43:19;;;;;;;11.40;4.00;;;;;;;10.03;37.17;100706.41;27315;1215;3025982;-73
2021/10/10 01:45:48;;;;;;;10.60;3.60;;;;;;;10.00;37.00;100707.23;27270;1215;3067939;-74
2021/10/10 01:48:16;;;;;;;11.90;3.50;;;;;;;9.98;36.99;100708.00;27277;1215;3026366;-80
2021/10/10 01:50:46;;;;;;;9.70;3.90;;;;;;;9.96;37.08;100705.45;27297;1216;3050461;-73
2021/10/10 01:53:14;;;;;;;5.60;3.40;;;;;;;9.94;37.00;100705.36;27245;1208;3026377;-73
2021/10/10 01:55:45;;;;;;;8.00;3.90;;;;;;;9.90;37.28;100703.23;27254;1215;3053480;-72
2021/10/10 01:58:14;;;;;;;7.80;3.50;;;;;;;9.90;37.04;100704.81;27258;1216;3026044;-71
2021/10/10 02:00:43;;;;;;;14.30;3.70;;;;;;;9.88;37.16;100706.29;27287;1215;3025984;-70
2021/10/10 02:03:12;;;;;;;11.30;4.10;;;;;;;9.83;37.11;100706.31;27243;1216;3026376;-76
2021/10/10 02:05:41;;;;;;;11.20;4.10;;;;;;;9.81;37.06;100706.90;27307;1215;3052332;-73
2021/10/10 02:08:11;;;;;;;7.00;3.50;;;;;;;9.78;37.13;100706.34;27305;1215;3026193;-71
2021/10/10 02:10:40;;;;;;;12.30;4.20;;;;;;;9.70;37.39;100706.09;27279;1215;3054653;-75
2021/10/10 02:13:10;;;;;;;11.20;4.00;;;;;;;9.68;37.53;100706.86;27272;1215;3026137;-71
2021/10/10 02:15:39;;;;;;;11.50;4.20;;;;;;;9.69;37.50;100705.75;27300;1216;3025784;-75
2021/10/10 02:18:08;;;;;;;9.60;4.20;;;;;;;9.67;37.52;100702.88;27286;1216;3052156;-74
2021/10/10 02:20:37;;;;;;;5.90;3.80;;;;;;;9.68;37.28;100702.84;27237;1215;3028851;-76
2021/10/10 02:23:06;;;;;;;10.00;4.10;;;;;;;9.67;37.59;100702.70;27269;1215;3049136;-72
2021/10/10 02:25:36;;;;;;;7.20;3.50;;;;;;;9.66;37.65;100704.12;27310;1209;3026323;-75
2021/10/10 02:28:04;;;;;;;8.40;3.50;;;;;;;9.66;37.58;100703.96;27267;1208;3025685;-79
2021/10/10 02:30:35;;;;;;;6.70;3.10;;;;;;;9.68;37.53;100704.24;27297;1216;3049011;-74
2021/10/10 02:33:04;;;;;;;9.00;3.30;;;;;;;9.67;37.64;100705.67;27243;1216;3026653;-74
2021/10/10 02:35:33;;;;;;;7.30;3.40;;;;;;;9.65;37.74;100704.86;27230;1216;3026683;-77
2021/10/10 02:38:02;;;;;;;9.80;3.00;;;;;;;9.65;37.76;100706.08;27179;1216;3025956;-74
2021/10/10 02:40:33;;;;;;;8.90;3.30;;;;;;;9.65;37.72;100703.47;27236;1216;3026463;-73
2021/10/10 02:43:02;;;;;;;9.20;3.10;;;;;;;9.67;37.69;100705.51;27243;1216;3025966;-75
2021/10/10 02:45:32;;;;;;;11.90;3.50;;;;;;;9.66;37.67;100709.73;27253;1215;3069192;-76
2021/10/10 02:48:01;;;;;;;9.90;4.50;;;;;;;9.63;37.70;100706.16;27300;1209;3026072;-72
2021/10/10 02:50:30;;;;;;;7.70;2.90;;;;;;;9.62;37.94;100705.50;27315;1208;3025842;-74
2021/10/10 02:52:59;;;;;;;5.60;2.50;;;;;;;9.63;37.93;100701.98;27314;1215;3071790;-71
2021/10/10 02:55:28;;;;;;;6.40;2.70;;;;;;;9.59;37.90;100699.51;27338;1215;3026094;-76
2021/10/10 02:57:57;;;;;;;9.00;2.60;;;;;;;9.56;38.02;100705.19;27259;1215;3049890;-73
2021/10/10 03:00:26;;;;;;;6.00;2.90;;;;;;;9.54;38.22;100705.26;27254;1216;3026456;-76
2021/10/10 03:02:58;;;;;;;6.30;2.70;;;;;;;9.54;38.17;100705.96;27315;1215;3054641;-73
2021/10/10 03:05:27;;;;;;;9.20;2.70;;;;;;;9.50;38.39;100706.11;27254;1217;3027438;-70
2021/10/10 03:07:56;;;;;;;6.30;2.60;;;;;;;9.54;37.88;100707.91;27217;1216;3028941;-73
2021/10/10 03:10:24;;;;;;;3.70;2.30;;;;;;;9.52;38.22;100707.09;27287;1215;3052347;-75
2021/10/10 03:12:56;;;;;;;9.00;2.50;;;;;;;9.44;38.44;100703.55;27312;1215;3026126;-72
2021/10/10 03:15:25;;;;;;;5.80;2.30;;;;;;;9.45;38.23;100708.75;27313;1215;3025713;-76
2021/10/10 03:17:53;;;;;;;9.80;3.00;;;;;;;9.48;38.32;100706.73;27333;1209;3026232;-75
2021/10/10 03:20:25;;;;;;;9.20;2.70;;;;;;;9.43;38.69;100705.83;27250;1216;3053783;-72
2021/10/10 03:22:53;;;;;;;6.80;2.40;;;;;;;9.44;38.65;100703.88;27211;1215;3025759;-74
2021/10/10 03:25:24;;;;;;;10.90;2.80;;;;;;;9.42;38.86;100708.51;27240;1211;3025826;-74
2021/10/10 03:27:53;;;;;;;7.50;2.80;;;;;;;9.42;39.02;100706.91;27265;1216;3025972;-74
2021/10/10 03:30:23;;;;;;;5.80;2.50;;;;;;;9.43;39.05;100706.70;27336;1208;3026056;-78
2021/10/10 03:32:52;;;;;;;6.80;2.30;;;;;;;9.45;38.92;100703.67;27285;1208;3026044;-72
2021/10/10 03:35:21;;;;;;;10.40;2.80;;;;;;;9.48;38.92;100704.98;27341;1215;3054099;-76
2021/10/10 03:37:50;;;;;;;7.00;2.50;;;;;;;9.47;38.84;100703.95;27346;1215;3026441;-71
2021/10/10 03:40:20;;;;;;;7.40;2.40;;;;;;;9.51;38.81;100709.08;27307;1216;3048497;-73
2021/10/10 03:42:50;;;;;;;6.60;2.70;;;;;;;9.51;38.85;100710.28;27259;1216;3027400;-75
2021/10/10 03:45:19;;;;;;;5.10;2.40;;;;;;;9.50;38.91;100707.15;27321;1215;3026037;-73
2021/10/10 03:47:48;;;;;;;8.10;2.30;;;;;;;9.46;39.06;100704.48;27319;1216;3047075;-72
2021/10/10 03:50:18;;;;;;;6.00;2.50;;;;;;;9.42;39.22;100704.11;27272;1215;3026123;-74
2021/10/10 03:52:47;;;;;;;7.70;2.90;;;;;;;9.41;39.39;100702.06;27313;1215;3026816;-72
2021/10/10 03:55:33;;;;;;;5.10;2.70;;;;;;;9.42;39.22;100703.96;27244;1218;3048360;-72
2021/10/10 03:58:02;;;;;;;6.00;2.40;;;;;;;9.46;39.25;100704.35;27303;1217;3051630;-74
2021/10/10 04:00:32;;;;;;;6.30;2.50;;;;;;;9.42;39.09;100704.13;27279;1216;3025918;-74
2021/10/10 04:03:04;;;;;;;6.70;2.00;;;;;;;9.42;39.11;100702.20;27275;1218;3028091;-75
2021/10/10 04:08:11;;;;;;;5.50;2.60;;;;;;;9.37;39.46;100700.46;27283;1215;3055923;-75
2021/10/10 04:10:41;;;;;;;10.00;2.20;;;;;;;9.41;39.25;100705.20;27335;1215;3026022;-72
2021/10/10 04:13:10;;;;;;;7.00;2.60;;;;;;;9.45;39.24;100702.96;27245;1215;3026468;-68
2021/10/10 04:15:40;;;;;;;6.30;2.50;;;;;;;9.49;39.11;100701.80;27290;1215;3054555;-72
2021/10/10 04:18:09;;;;;;;6.40;2.70;;;;;;;9.50;39.17;100704.73;27279;1215;3028086;-73
2021/10/10 04:20:38;;;;;;;4.10;2.20;;;;;;;9.50;39.08;100704.55;27253;1218;3048940;-77
2021/10/10 04:23:08;;;;;;;6.90;2.90;;;;;;;9.50;39.02;100707.70;27235;1216;3026024;-74
2021/10/10 04:25:36;;;;;;;6.60;2.90;;;;;;;9.50;38.95;100714.34;27302;1216;3028136;-76
2021/10/10 04:28:05;;;;;;;5.70;2.30;;;;;;;9.51;39.00;100717.10;27278;1217;3047897;-74
2021/10/10 04:30:34;;;;;;;7.20;2.50;;;;;;;9.54;39.10;100716.11;27332;1212;3026325;-76
2021/10/10 04:33:03;;;;;;;8.10;2.60;;;;;;;9.54;39.10;100712.64;27298;1215;3055544;-73
2021/10/10 04:35:35;;;;;;;4.40;2.40;;;;;;;9.50;39.30;100719.59;27239;1217;3027529;-76
2021/10/10 04:38:03;;;;;;;7.30;3.10;;;;;;;9.45;39.36;100716.47;27281;1216;3026372;-75
2021/10/10 04:40:33;;;;;;;11.80;2.30;;;;;;;9.46;39.38;100717.62;27305;1215;3025963;-75
2021/10/10 04:43:07;;;;;;;10.80;3.00;;;;;;;9.51;39.63;100719.04;27385;1215;3025998;-75
2021/10/10 04:45:37;;;;;;;6.00;2.60;;;;;;;9.53;39.56;100726.13;27345;1216;3051786;-72
2021/10/10 04:48:08;;;;;;;7.80;2.70;;;;;;;9.52;39.45;100722.14;27325;1215;3027641;-73
2021/10/10 04:50:37;;;;;;;8.40;2.80;;;;;;;9.52;39.35;100724.23;27297;1216;3026574;-75
2021/10/10 04:53:06;;;;;;;13.00;3.30;;;;;;;9.52;39.76;100728.78;27270;1218;3051879;-76
2021/10/10 04:55:35;;;;;;;5.30;3.00;;;;;;;9.47;39.77;100731.59;27316;1215;3026611;-77
2021/10/10 04:58:04;;;;;;;7.50;2.50;;;;;;;9.47;39.99;100738.08;27261;1215;3051086;-77
2021/10/10 05:00:33;;;;;;;7.00;2.30;;;;;;;9.46;40.14;100741.95;27297;1216;3026059;-73
2021/10/10 05:03:03;;;;;;;8.80;2.90;;;;;;;9.47;40.18;100745.41;27279;1217;3055322;-77
2021/10/10 05:05:32;;;;;;;5.50;3.00;;;;;;;9.52;40.05;100749.23;27288;1215;3026231;-74
2021/10/10 05:08:02;;;;;;;6.60;3.20;;;;;;;9.54;39.91;100751.81;27281;1215;3025698;-75
2021/10/10 05:10:31;;;;;;;6.90;2.40;;;;;;;9.53;39.91;100755.52;27257;1216;3057606;-73
2021/10/10 05:13:00;;;;;;;8.60;2.60;;;;;;;9.55;40.13;100752.45;27291;1215;3028983;-71
2021/10/10 05:15:31;;;;;;;6.40;2.40;;;;;;;9.59;39.94;100757.77;27281;1216;3053988;-71
2021/10/10 05:18:03;;;;;;;9.20;3.20;;;;;;;9.62;39.73;100760.80;27325;1216;3025888;-79
2021/10/10 05:20:32;;;;;;;6.80;3.00;;;;;;;9.63;39.80;100761.98;27282;1218;3026260;-73
2021/10/10 05:23:01;;;;;;;6.70;2.70;;;;;;;9.63;40.02;100766.17;27273;1218;3028572;-71
2021/10/10 05:25:29;;;;;;;8.00;2.90;;;;;;;9.68;39.87;100764.08;27267;1215;3054793;-72
2021/10/10 05:28:00;;;;;;;8.00;2.90;;;;;;;9.71;39.90;100762.74;27253;1215;3028075;-70
2021/10/10 05:30:29;;;;;;;5.40;2.80;;;;;;;9.73;39.93;100765.46;27277;1215;3026672;-73
2021/10/10 05:33:00;;;;;;;6.30;2.50;;;;;;;9.72;40.17;100765.33;27269;1215;3026669;-76
2021/10/10 05:35:29;;;;;;;7.70;3.00;;;;;;;9.73;40.35;100767.75;27279;1209;3025978;-76
2021/10/10 05:37:58;;;;;;;8.40;2.50;;;;;;;9.71;40.82;100765.71;27260;1219;3051931;-75
2021/10/10 05:40:27;;;;;;;9.80;2.80;;;;;;;9.77;40.23;100763.23;27284;1216;3026543;-74
2021/10/10 05:42:56;;;;;;;8.00;2.80;;;;;;;9.81;40.21;100760.96;27301;1217;3051302;-76
2021/10/10 05:45:24;;;;;;;6.10;2.50;;;;;;;9.81;40.14;100762.02;27264;1216;3026354;-73
2021/10/10 05:47:53;;;;;;;12.20;3.10;;;;;;;9.83;40.13;100763.17;27240;1215;3057369;-75
2021/10/10 05:50:22;;;;;;;5.40;2.70;;;;;;;9.86;40.12;100765.34;27219;1215;3029305;-75
2021/10/10 05:52:53;;;;;;;7.20;2.70;;;;;;;9.92;39.86;100765.84;27288;1215;3051366;-75
2021/10/10 05:55:24;;;;;;;10.40;3.00;;;;;;;9.97;39.93;100769.83;27351;1215;3027929;-75
2021/10/10 05:57:54;;;;;;;10.10;3.40;;;;;;;10.02;39.96;100768.41;27284;1215;3026792;-74
2021/10/10 06:00:24;;;;;;;7.20;3.00;;;;;;;10.02;39.94;100768.06;27263;1215;3025902;-76
2021/10/10 06:02:53;;;;;;;7.40;2.90;;;;;;;10.06;39.47;100769.81;27307;1215;3026639;-75
2021/10/10 06:05:21;;;;;;;7.30;3.30;;;;;;;10.16;39.42;100769.81;27251;1216;3026306;-73
2021/10/10 06:07:50;;;;;;;8.30;2.60;;;;;;;10.22;39.34;100768.17;27268;1218;3051402;-78
2021/10/10 06:10:20;;;;;;;13.90;3.10;;;;;;;10.24;39.42;100767.73;27255;1215;3026059;-76
2021/10/10 06:12:48;;;;;;;10.80;3.10;;;;;;;10.32;39.15;100765.20;27233;1215;3026220;-72
2021/10/10 06:15:17;;;;;;;9.20;3.20;;;;;;;10.39;39.11;100769.83;27262;1216;3054943;-71
2021/10/10 06:17:48;;;;;;;10.40;2.90;;;;;;;10.47;39.03;100774.26;27269;1218;3026144;-76
2021/10/10 06:20:16;;;;;;;9.40;2.90;;;;;;;10.47;39.16;100773.05;27282;1216;3051539;-77
2021/10/10 06:22:45;;;;;;;7.90;2.90;;;;;;;10.51;38.97;100771.30;27298;1216;3028012;-75
2021/10/10 06:25:15;;;;;;;7.20;2.90;;;;;;;10.52;39.04;100771.27;27274;1217;3057283;-78
2021/10/10 06:27:45;;;;;;;6.50;3.20;;;;;;;10.59;38.92;100775.20;27260;1216;3028189;-73
2021/10/10 06:30:14;;;;;;;10.00;2.90;;;;;;;10.62;38.66;100773.86;27210;1210;3025930;-73
2021/10/10 06:32:43;;;;;;;4.90;2.40;;;;;;;10.67;38.67;100776.10;27246;1217;3028368;-74
2021/10/10 06:35:13;;;;;;;9.70;3.40;;;;;;;10.67;38.70;100775.73;27301;1215;3049107;-78
2021/10/10 06:37:42;;;;;;;7.20;3.10;;;;;;;10.74;38.64;100774.59;27260;1216;3026858;-75
2021/10/10 06:40:11;;;;;;;12.00;3.30;;;;;;;10.83;38.41;100774.42;27262;1216;3026790;-77
2021/10/10 06:42:40;;;;;;;10.90;3.00;;;;;;;10.88;38.36;100775.09;27273;1216;3051051;-81
2021/10/10 06:45:09;;;;;;;5.10;2.80;;;;;;;11.00;38.02;100770.20;27297;1209;3026090;-79
2021/10/10 06:47:38;;;;;;;10.50;3.10;;;;;;;11.06;38.09;100771.54;27245;1215;3055473;-75
2021/10/10 06:50:07;;;;;;;6.20;3.00;;;;;;;11.12;38.15;100771.66;27206;1216;3029306;-77
2021/10/10 06:52:36;;;;;;;8.80;3.00;;;;;;;11.14;38.15;100771.56;27197;1216;3054766;-72
2021/10/10 06:55:06;;;;;;;6.80;2.80;;;;;;;11.17;38.05;100769.34;27244;1209;3026835;-75
2021/10/10 06:57:36;;;;;;;9.50;3.30;;;;;;;11.23;37.66;100772.73;27236;1216;3053407;-74
2021/10/10 07:00:06;;;;;;;8.30;3.30;;;;;;;11.25;37.52;100771.77;27243;1216;3026621;-73
2021/10/10 07:02:42;;;;;;;5.60;2.70;;;;;;;11.34;37.36;100773.16;27243;1217;3050402;-76
2021/10/10 07:05:11;;;;;;;8.40;3.00;;;;;;;11.35;37.47;100771.16;27310;1216;3026469;-70
2021/10/10 07:07:42;;;;;;;5.60;2.70;;;;;;;11.39;37.53;100767.15;27246;1216;3025891;-70
2021/10/10 07:10:11;;;;;;;6.10;2.50;;;;;;;11.51;36.99;100768.77;27293;1216;3026031;-71
2021/10/10 07:12:40;;;;;;;8.00;2.80;;;;;;;11.60;36.92;100762.92;27259;1209;3052245;-75
2021/10/10 07:15:29;;;;;;;7.90;2.50;;;;;;;11.69;36.51;100764.09;27267;1216;3052752;-72
2021/10/10 07:18:00;;;;;;;6.90;2.60;;;;;;;11.81;36.26;100762.88;27278;1200;3026224;-73
2021/10/10 07:26:21;;;;;;;7.90;2.60;;;;;;;11.99;35.83;100767.73;27238;1216;3058040;-76
2021/10/10 07:28:50;;;;;;;5.50;2.70;;;;;;;12.07;35.70;100763.61;27249;1216;3027327;-71
2021/10/10 07:31:20;;;;;;;7.50;2.60;;;;;;;12.16;35.61;100763.75;27239;1215;3026130;-76
2021/10/10 07:33:49;;;;;;;8.10;3.50;;;;;;;12.24;35.50;100757.26;27276;1209;3026149;-73
2021/10/10 07:36:18;;;;;;;6.60;3.20;;;;;;;12.31;35.46;100757.61;27267;1216;3048814;-73
2021/10/10 07:38:46;;;;;;;9.90;3.10;;;;;;;12.36;35.40;100751.73;27239;1216;3026027;-72
2021/10/10 07:41:15;;;;;;;9.10;2.70;;;;;;;12.43;35.20;100756.86;27205;1215;3055564;-73
2021/10/10 07:43:44;;;;;;;5.30;2.60;;;;;;;12.43;35.43;100757.23;27367;1209;3026096;-75
2021/10/10 07:46:21;;;;;;;8.90;3.00;;;;;;;12.49;35.11;100755.89;27260;1215;3055196;-74
2021/10/10 07:48:50;;;;;;;10.20;3.00;;;;;;;12.56;34.68;100752.38;27234;1215;3056587;-74
2021/10/10 07:51:22;;;;;;;7.20;3.10;;;;;;;12.68;34.80;100753.39;27239;1216;3027570;-73
2021/10/10 07:53:51;;;;;;;9.20;3.00;;;;;;;12.78;34.42;100751.16;27252;1215;3053521;-80
2021/10/10 07:56:20;;;;;;;7.60;2.70;;;;;;;12.80;34.23;100748.39;27327;1216;3026294;-70
2021/10/10 07:58:50;;;;;;;11.20;3.00;;;;;;;12.90;34.02;100745.63;27296;1216;3050991;-71
2021/10/10 08:01:20;;;;;;;5.90;2.60;;;;;;;12.95;34.14;100743.61;27222;1218;3026304;-70
2021/10/10 08:03:49;;;;;;;10.10;2.90;;;;;;;12.99;34.20;100742.38;27245;1216;3027560;-75
2021/10/10 08:06:19;;;;;;;6.00;2.50;;;;;;;13.15;33.71;100744.54;27238;1216;3027407;-70
2021/10/10 08:08:48;;;;;;;8.80;3.20;;;;;;;13.25;33.59;100742.76;27296;1216;3055106;-66
2021/10/10 08:11:17;;;;;;;9.00;3.10;;;;;;;13.36;33.23;100745.96;27262;1216;3026008;-75
2021/10/10 08:13:47;;;;;;;8.20;3.00;;;;;;;13.38;33.15;100744.42;27270;1217;3054462;-69
2021/10/10 08:16:15;;;;;;;9.20;2.80;;;;;;;13.47;33.11;100738.19;27226;1216;3028315;-77
2021/10/10 08:18:45;;;;;;;9.20;3.00;;;;;;;13.63;32.81;100737.34;27265;1216;3049317;-72
2021/10/10 08:21:14;;;;;;;7.00;3.30;;;;;;;13.75;32.68;100736.53;27210;1216;3025971;-74
2021/10/10 08:23:44;;;;;;;6.70;3.70;;;;;;;13.79;32.69;100737.56;27217;1216;3069853;-73
2021/10/10 08:26:13;;;;;;;11.80;3.20;;;;;;;13.74;32.57;100734.48;27260;1216;3026391;-75
2021/10/10 08:28:42;;;;;;;18.90;3.50;;;;;;;13.84;32.53;100730.61;27304;1216;3026258;-73
2021/10/10 08:31:11;;;;;;;5.80;3.20;;;;;;;13.90;32.33;100731.69;27202;1216;3067909;-68
2021/10/10 08:33:39;;;;;;;10.30;3.20;;;;;;;13.97;32.37;100729.54;27256;1215;3026011;-76
2021/10/10 08:36:08;;;;;;;11.10;3.00;;;;;;;14.02;32.29;100724.85;27203;1216;3050538;-74
2021/10/10 08:38:37;;;;;;;8.50;3.40;;;;;;;14.07;32.08;100727.23;27229;1216;3026143;-68
2021/10/10 08:41:07;;;;;;;10.10;3.70;;;;;;;14.11;32.13;100725.59;27273;1216;3054577;-70
2021/10/10 08:43:36;;;;;;;7.70;3.10;;;;;;;14.15;31.53;100726.27;27274;1216;3028805;-76
2021/10/10 08:46:06;;;;;;;17.80;3.50;;;;;;;14.20;31.92;100728.27;27316;1216;3049440;-72
2021/10/10 08:48:35;;;;;;;15.50;3.50;;;;;;;14.24;32.01;100723.43;27347;1216;3027906;-76
2021/10/10 08:51:03;;;;;;;11.40;3.20;;;;;;;14.33;31.75;100723.35;27268;1216;3026393;-70
2021/10/10 08:53:34;;;;;;;11.30;3.30;;;;;;;14.35;31.73;100723.89;27251;1215;3048474;-71
2021/10/10 08:56:03;;;;;;;13.10;3.20;;;;;;;14.40;31.60;100723.08;27247;1218;3028018;-74
2021/10/10 08:58:37;;;;;;;13.90;3.10;;;;;;;14.47;31.71;100722.67;27287;1216;3026002;-73
2021/10/10 09:01:14;;;;;;;12.30;2.90;;;;;;;14.50;31.24;100717.95;27222;1216;3049143;-72
2021/10/10 09:03:49;;;;;;;11.00;3.60;;;;;;;14.59;31.21;100721.81;27228;1216;3052483;-74
2021/10/10 09:06:18;;;;;;;11.40;2.90;;;;;;;14.68;30.97;100716.41;27270;1216;3050896;-72
2021/10/10 09:08:47;;;;;;;10.00;3.30;;;;;;;14.76;31.09;100717.55;27267;1216;3026094;-74
2021/10/10 09:11:17;;;;;;;9.40;3.30;;;;;;;14.90;30.68;100713.92;27227;1216;3026309;-73
2021/10/10 09:13:47;;;;;;;9.90;3.10;;;;;;;14.94;30.77;100711.17;27243;1216;3025819;-71
2021/10/10 09:16:18;;;;;;;14.60;4.10;;;;;;;14.93;30.55;100713.38;27321;1216;3070485;-75
2021/10/10 09:18:47;;;;;;;11.90;3.30;;;;;;;15.05;30.13;100711.41;27267;1209;3025900;-74
2021/10/10 09:21:22;;;;;;;7.00;3.50;;;;;;;15.01;29.60;100710.08;27255;1216;3052737;-69
2021/10/10 09:23:54;;;;;;;9.60;3.20;;;;;;;14.99;29.14;100715.70;27210;1215;3068179;-72
2021/10/10 09:26:24;;;;;;;14.20;3.60;;;;;;;15.11;29.03;100715.87;27244;1216;3026268;-71
2021/10/10 09:28:53;;;;;;;9.20;3.30;;;;;;;15.16;29.81;100715.71;27330;1216;3026413;-77
2021/10/10 09:31:23;;;;;;;8.90;3.60;;;;;;;15.23;29.42;100713.35;27287;1216;3070127;-69
2021/10/10 09:33:57;;;;;;;4.80;2.80;;;;;;;15.22;29.23;100712.58;27242;1209;3025746;-74
2021/10/10 09:36:28;;;;;;;;;;;;;;;15.23;29.13;100706.27;27234;1216;3054594;-72
2021/10/10 09:39:06;;;;;;;12.00;3.30;;;;;;;15.22;28.58;100709.88;27261;1216;3027054;-69
2021/10/10 09:41:46;;;;;;;7.40;2.80;;;;;;;15.31;28.42;100707.95;27214;1216;3055824;-75
2021/10/10 09:44:30;;;;;;;11.80;3.60;;;;;;;15.42;28.46;100704.08;27216;1216;3048968;-72
2021/10/10 09:47:00;;;;;;;10.70;3.60;;;;;;;15.46;28.60;100703.67;27246;1216;3053307;-73
2021/10/10 09:49:34;;;;;;;6.20;3.60;;;;;;;15.51;28.62;100705.46;27205;1216;3026289;-73
2021/10/10 09:52:09;;;;;;;5.70;3.10;;;;;;;15.57;28.80;100700.00;27224;1216;3025881;-73
2021/10/10 09:54:56;;;;;;;6.50;2.50;;;;;;;15.51;28.38;100697.73;27282;1216;3047364;-74
2021/10/10 09:57:27;;;;;;;10.80;2.40;;;;;;;15.55;27.70;100702.10;27236;1216;3055252;-69
2021/10/10 09:59:56;;;;;;;4.00;2.30;;;;;;;15.56;27.29;100700.59;27246;1216;3026642;-68
2021/10/10 10:02:39;;;;;;;4.90;2.00;;;;;;;15.68;27.18;100698.97;27239;1216;3026243;-74
2021/10/10 10:05:21;;;;;;;6.20;2.30;;;;;;;15.74;27.27;100702.69;27283;1216;3056346;-68
2021/10/10 10:07:50;;;;;;;5.40;2.10;;;;;;;15.86;27.22;100703.55;27216;1216;3054496;-74
2021/10/10 10:10:20;;;;;;;6.30;2.60;;;;;;;16.00;27.01;100700.35;27249;1216;3026382;-74
2021/10/10 10:12:50;;;;;;;7.20;1.80;;;;;;;16.01;26.87;100704.91;27197;1216;3028605;-72
2021/10/10 10:15:24;;;;;;;8.30;2.50;;;;;;;15.99;26.76;100705.71;27251;1208;3028830;-74
2021/10/10 10:17:54;;;;;;;11.30;2.50;;;;;;;16.05;26.88;100706.91;27287;1216;3050028;-70
2021/10/10 10:20:24;;;;;;;12.90;2.70;;;;;;;16.05;26.79;100703.55;27244;1208;3025722;-71
2021/10/10 10:22:54;;;;;;;8.60;2.70;;;;;;;16.14;26.35;100706.38;27234;1216;3027417;-74
2021/10/10 10:25:24;;;;;;;10.10;3.20;;;;;;;16.21;26.38;100704.34;27224;1216;3026264;-72
2021/10/10 10:27:53;;;;;;;12.80;3.50;;;;;;;16.30;26.20;100704.27;27232;1216;3028014;-70
2021/10/10 10:30:23;;;;;;;11.80;3.20;;;;;;;16.31;25.91;100702.30;27210;1216;3026386;-73
2021/10/10 10:32:53;;;;;;;9.10;2.90;;;;;;;16.39;26.25;100700.55;27220;1216;3026022;-69
2021/10/10 10:35:22;;;;;;;7.30;2.80;;;;;;;16.44;26.39;100697.90;27246;1215;3026948;-77
2021/10/10 10:37:53;;;;;;;15.00;2.90;;;;;;;16.49;26.00;100694.04;27249;1209;3026151;-74
2021/10/10 10:40:22;;;;;;;8.30;2.70;;;;;;;16.42;26.44;100699.94;27262;1215;3049698;-69
2021/10/10 10:42:51;;;;;;;11.20;2.80;;;;;;;16.37;26.69;100695.89;27223;1216;3026469;-73
2021/10/10 10:45:30;;;;;;;8.80;2.70;;;;;;;16.37;26.33;100694.23;27225;1216;3057161;-76
2021/10/10 10:48:01;;;;;;;15.10;3.40;;;;;;;16.41;25.92;100693.30;27262;1215;3052843;-72
2021/10/10 10:50:42;;;;;;;7.60;2.20;;;;;;;16.41;26.08;100696.14;27263;1216;3028245;-70
2021/10/10 10:53:20;;;;;;;14.50;3.20;;;;;;;16.48;26.07;100695.71;27262;1216;3053136;-69
2021/10/10 10:55:55;;;;;;;8.80;2.40;;;;;;;16.53;26.29;100694.64;27248;1215;3068313;-69
2021/10/10 10:58:24;;;;;;;11.40;3.40;;;;;;;16.55;26.07;100695.70;27229;1216;3047811;-70
2021/10/10 11:01:04;;;;;;;7.00;2.60;;;;;;;16.59;26.17;100695.30;27246;1216;3028497;-72
2021/10/10 11:03:34;;;;;;;6.90;2.70;;;;;;;16.65;25.24;100695.41;27274;1215;3068562;-75
2021/10/10 11:06:06;;;;;;;11.20;2.70;;;;;;;16.63;25.49;100694.16;27227;1212;3028471;-76
2021/10/10 11:08:39;;;;;;;9.10;2.90;;;;;;;16.66;25.58;100693.59;27254;1216;3026439;-70
2021/10/10 11:11:08;;;;;;;10.20;2.60;;;;;;;16.64;25.63;100689.87;27216;1215;3026868;-72
2021/10/10 11:13:42;;;;;;;10.50;2.70;;;;;;;16.68;25.45;100689.22;27319;1215;3026592;-76
2021/10/10 11:16:41;;;;;;;9.30;2.80;;;;;;;16.67;25.35;100688.05;27317;1215;3049466;-69
2021/10/10 11:19:11;;;;;;;7.70;2.60;;;;;;;16.60;25.81;100684.31;27227;1216;3054833;-74
2021/10/10 11:21:44;;;;;;;13.60;3.20;;;;;;;16.60;25.53;100691.55;27266;1216;3027517;-70
2021/10/10 11:24:21;;;;;;;8.00;3.50;;;;;;;16.59;25.74;100688.45;27225;1216;3025797;-74
2021/10/10 11:26:51;;;;;;;8.30;3.10;;;;;;;16.55;25.94;100684.25;27248;1216;3051133;-71
2021/10/10 11:29:24;;;;;;;10.70;3.60;;;;;;;16.46;26.08;100679.89;27261;1216;3026552;-76
2021/10/10 11:31:54;;;;;;;6.60;3.30;;;;;;;16.56;25.94;100675.69;27254;1216;3026350;-74